Time;durP1;ratioP1;P1;durP2;ratioP2;P2;SDS_P1;SDS_P2;PMS_P1;PMS_P2;Temp;Humidity;BMP_temperature;BMP_pressure;BME280_temperature;BME280_humidity;BME280_pressure;Samples;Min_cycle;Max_cycle;Signal;HPM_P1;HPM_P2
2022/01/14 00:00:05;;;;;;;124.72;39.25;;;5.20;99.90;;;;;;5071094;28;20470;-52
2022/01/14 00:02:30;;;;;;;;;;;5.20;99.90;;;;;;5062027;28;20048;-48
2022/01/14 00:04:56;;;;;;;112.63;38.33;;;5.20;99.90;;;;;;5065721;28;19928;-52
2022/01/14 00:07:21;;;;;;;116.85;39.50;;;5.20;99.90;;;;;;5066180;28;20091;-48
2022/01/14 00:09:47;;;;;;;121.95;38.30;;;5.20;99.90;;;;;;5066478;28;20041;-48
2022/01/14 00:12:18;;;;;;;115.43;39.30;;;5.20;99.90;;;;;;5065902;28;20226;-50
2022/01/14 00:14:56;;;;;;;118.57;40.42;;;5.20;99.90;;;;;;5063797;28;20121;-49
2022/01/14 00:17:22;;;;;;;116.47;40.47;;;5.20;99.90;;;;;;5059913;28;20041;-49
2022/01/14 00:19:48;;;;;;;119.85;40.35;;;5.20;99.90;;;;;;5062658;28;20504;-49
2022/01/14 00:22:16;;;;;;;121.43;40.58;;;5.20;99.90;;;;;;5061273;28;20094;-49
2022/01/14 00:33:24;;;;;;;124.35;40.88;;;5.20;99.90;;;;;;5061232;28;20137;-51
2022/01/14 00:35:44;;;;;;;122.72;40.08;;;5.20;99.90;;;;;;5058098;28;20503;-48
2022/01/14 00:38:11;;;;;;;126.65;40.67;;;5.20;99.90;;;;;;5065050;28;20135;-49
2022/01/14 00:40:37;;;;;;;129.55;41.45;;;5.30;99.90;;;;;;5062723;28;20059;-50
2022/01/14 00:43:03;;;;;;;117.38;41.05;;;5.30;99.90;;;;;;5063351;28;20028;-49
2022/01/14 00:45:29;;;;;;;119.57;41.45;;;5.20;99.90;;;;;;5056769;28;20102;-49
2022/01/14 00:47:55;;;;;;;131.02;42.15;;;5.30;99.90;;;;;;5062002;28;20690;-50
2022/01/14 00:50:21;;;;;;;117.57;44.30;;;5.20;99.90;;;;;;5059736;28;20045;-49
2022/01/14 00:52:47;;;;;;;121.07;42.75;;;5.30;99.90;;;;;;5066567;28;20047;-51
2022/01/14 00:55:18;;;;;;;116.13;42.30;;;5.20;99.90;;;;;;5059609;28;20484;-48
2022/01/14 01:00:21;;;;;;;116.55;42.50;;;5.20;99.90;;;;;;5064938;28;20467;-49
2022/01/14 01:02:46;;;;;;;117.53;43.08;;;5.30;99.90;;;;;;5060194;28;20072;-50
2022/01/14 01:05:13;;;;;;;125.25;43.28;;;5.30;99.90;;;;;;5062471;28;20044;-48
2022/01/14 01:07:46;;;;;;;109.40;40.83;;;5.30;99.90;;;;;;5066405;28;20055;-51
2022/01/14 01:10:12;;;;;;;112.10;41.80;;;5.30;99.90;;;;;;5062255;28;20044;-50
2022/01/14 01:13:09;;;;;;;117.30;40.38;;;5.30;99.90;;;;;;5064728;28;20041;-50
2022/01/14 01:15:25;;;;;;;120.00;41.28;;;5.30;99.90;;;;;;5061863;28;20498;-52
2022/01/14 01:17:50;;;;;;;117.28;41.15;;;5.30;99.90;;;;;;5062486;28;20051;-53
2022/01/14 01:20:18;;;;;;;113.53;42.45;;;5.40;99.90;;;;;;5062274;28;20043;-49
2022/01/14 01:22:48;;;;;;;129.85;43.15;;;5.40;99.90;;;;;;5056565;28;20041;-50
2022/01/14 01:25:16;;;;;;;128.65;43.15;;;5.30;99.90;;;;;;5058580;28;20543;-50
2022/01/14 01:27:43;;;;;;;121.93;44.42;;;5.30;99.90;;;;;;5061657;28;20032;-49
2022/01/14 01:30:47;;;;;;;123.47;41.97;;;5.30;99.90;;;;;;5057294;28;20036;-50
2022/01/14 01:33:05;;;;;;;115.00;42.22;;;5.40;99.90;;;;;;5059916;28;21707;-51
2022/01/14 01:35:32;;;;;;;121.80;43.83;;;5.40;99.90;;;;;;5056581;28;20491;-53
2022/01/14 01:37:57;;;;;;;119.55;42.50;;;5.40;99.90;;;;;;5059941;28;20044;-52
2022/01/14 01:40:25;;;;;;;118.88;42.92;;;5.40;99.90;;;;;;5065039;28;20051;-49
2022/01/14 01:42:52;;;;;;;119.00;42.80;;;5.40;99.90;;;;;;5063927;28;20037;-48
2022/01/14 01:45:25;;;;;;;118.57;43.35;;;5.40;99.90;;;;;;5056584;28;20037;-47
2022/01/14 01:47:54;;;;;;;119.60;42.10;;;5.40;99.90;;;;;;5065061;28;20501;-48
2022/01/14 01:50:25;;;;;;;120.50;42.88;;;5.40;99.90;;;;;;5061754;28;20123;-51
2022/01/14 01:52:51;;;;;;;123.30;42.17;;;5.40;99.90;;;;;;5053961;28;20041;-47
2022/01/14 01:55:17;;;;;;;117.50;43.90;;;5.40;99.90;;;;;;5060140;28;20495;-47
2022/01/14 01:57:43;;;;;;;114.00;41.83;;;5.40;99.90;;;;;;5058725;28;20035;-48
2022/01/14 02:00:11;;;;;;;124.93;41.45;;;5.40;99.90;;;;;;5057478;28;20044;-51
2022/01/14 02:02:37;;;;;;;128.23;41.72;;;5.40;99.90;;;;;;5058939;28;20111;-49
2022/01/14 02:05:04;;;;;;;129.93;41.83;;;5.40;99.90;;;;;;5058938;28;20045;-49
2022/01/14 02:07:34;;;;;;;126.57;42.60;;;5.40;99.90;;;;;;5054998;28;20041;-50
2022/01/14 02:10:00;;;;;;;111.65;42.03;;;5.40;99.90;;;;;;5058352;28;20065;-49
2022/01/14 02:12:34;;;;;;;117.82;41.55;;;5.40;99.90;;;;;;5054145;28;20056;-49
2022/01/14 02:15:13;;;;;;;128.07;43.40;;;5.40;99.90;;;;;;5052791;28;20132;-51
2022/01/14 02:18:23;;;;;;;114.90;40.30;;;5.40;99.90;;;;;;5054522;28;20048;-51
2022/01/14 02:23:22;;;;;;;120.80;40.70;;;5.50;99.90;;;;;;5065283;28;19965;-53
2022/01/14 02:25:49;;;;;;;103.25;37.45;;;5.50;99.90;;;;;;5060011;28;20041;-51
2022/01/14 02:28:17;;;;;;;125.00;41.63;;;5.50;99.90;;;;;;5057056;28;20047;-48
2022/01/14 02:30:45;;;;;;;124.80;40.35;;;5.50;99.90;;;;;;5065690;28;20552;-51
2022/01/14 02:33:12;;;;;;;118.35;40.13;;;5.50;99.90;;;;;;5062475;28;20036;-48
2022/01/14 02:35:39;;;;;;;125.75;41.58;;;5.50;99.90;;;;;;5062838;28;20140;-49
2022/01/14 02:38:06;;;;;;;120.25;40.05;;;5.50;99.90;;;;;;5062785;28;20076;-53
2022/01/14 02:40:32;;;;;;;120.18;39.53;;;5.50;99.90;;;;;;5062299;28;20510;-51
2022/01/14 02:43:00;;;;;;;119.68;40.90;;;5.50;99.90;;;;;;5059449;28;20037;-51
2022/01/14 02:45:31;;;;;;;114.55;40.40;;;5.50;99.90;;;;;;5065161;28;20155;-53
2022/01/14 02:47:57;;;;;;;112.20;39.42;;;5.50;99.90;;;;;;5060511;28;20111;-51
2022/01/14 02:50:24;;;;;;;111.10;39.20;;;5.50;99.90;;;;;;5060251;28;20136;-52
2022/01/14 02:55:21;;;;;;;117.30;40.20;;;5.50;99.90;;;;;;5054056;28;20310;-48
2022/01/14 02:57:49;;;;;;;110.57;39.95;;;5.50;99.90;;;;;;5061749;28;20041;-53
2022/01/14 03:00:17;;;;;;;123.28;39.60;;;5.50;99.90;;;;;;5055676;28;20040;-53
2022/01/14 03:02:48;;;;;;;115.27;39.60;;;5.50;99.90;;;;;;5058961;28;20494;-52
2022/01/14 03:05:17;;;;;;;116.93;40.45;;;5.50;99.90;;;;;;5058530;28;20359;-53
2022/01/14 03:07:43;;;;;;;111.97;39.83;;;5.60;99.90;;;;;;5063577;28;20079;-52
2022/01/14 03:10:11;;;;;;;105.85;38.63;;;5.60;99.90;;;;;;5062067;28;20072;-48
2022/01/14 03:12:37;;;;;;;111.82;39.75;;;5.60;99.90;;;;;;5059309;28;20043;-50
2022/01/14 03:15:04;;;;;;;109.97;39.00;;;5.60;99.90;;;;;;5052589;28;20045;-50
2022/01/14 03:17:30;;;;;;;106.00;39.85;;;5.60;99.90;;;;;;5058901;28;20482;-49
2022/01/14 03:19:58;;;;;;;102.50;38.15;;;5.60;99.90;;;;;;5056090;28;20131;-52
2022/01/14 03:22:29;;;;;;;112.95;38.67;;;5.60;99.90;;;;;;5060829;28;20040;-50
2022/01/14 03:27:21;;;;;;;112.28;39.33;;;5.60;99.90;;;;;;5061825;28;20045;-51
2022/01/14 03:29:47;;;;;;;110.20;39.22;;;5.60;99.90;;;;;;5058865;28;20805;-50
2022/01/14 03:32:13;;;;;;;114.57;40.08;;;5.60;99.90;;;;;;5057043;28;20043;-50
2022/01/14 03:34:39;;;;;;;115.18;39.38;;;5.60;99.90;;;;;;5061136;28;20047;-49
2022/01/14 03:37:04;;;;;;;115.93;39.67;;;5.60;99.90;;;;;;5052635;28;20033;-51
2022/01/14 03:39:32;;;;;;;112.32;40.63;;;5.60;99.90;;;;;;5059282;28;20141;-47
2022/01/14 03:41:57;;;;;;;125.80;40.13;;;5.60;99.90;;;;;;5057138;28;20045;-51
2022/01/14 03:44:23;;;;;;;110.80;38.97;;;5.60;99.90;;;;;;5052867;28;20306;-51
2022/01/14 03:46:49;;;;;;;100.15;37.97;;;5.60;99.90;;;;;;5052386;28;20053;-49
2022/01/14 03:49:15;;;;;;;108.07;37.80;;;5.50;99.90;;;;;;5058367;28;20040;-48
2022/01/14 03:51:42;;;;;;;115.45;40.17;;;5.60;99.90;;;;;;5062872;28;20055;-50
2022/01/14 03:54:07;;;;;;;108.45;37.80;;;5.50;99.90;;;;;;5062115;28;20144;-52
2022/01/14 03:56:33;;;;;;;101.90;36.35;;;5.50;99.90;;;;;;5067748;28;20146;-50
2022/01/14 03:58:59;;;;;;;101.97;38.38;;;5.50;99.90;;;;;;5062663;28;20447;-48
2022/01/14 04:01:24;;;;;;;97.45;37.30;;;5.60;99.90;;;;;;5062974;28;20147;-53
2022/01/14 04:03:50;;;;;;;107.93;37.75;;;5.60;99.90;;;;;;5060896;28;20037;-48
2022/01/14 04:06:17;;;;;;;101.82;37.25;;;5.60;99.90;;;;;;5070224;28;20528;-52
2022/01/14 04:08:43;;;;;;;100.65;38.30;;;5.60;99.90;;;;;;5068115;28;20070;-51
2022/01/14 04:11:10;;;;;;;99.47;37.70;;;5.60;99.90;;;;;;5056284;28;20041;-48
2022/01/14 04:13:47;;;;;;;104.40;38.75;;;5.60;99.90;;;;;;5056227;28;20047;-49
2022/01/14 04:16:13;;;;;;;99.32;38.00;;;5.60;99.90;;;;;;5061992;28;20049;-50
2022/01/14 04:18:40;;;;;;;104.82;38.85;;;5.60;99.90;;;;;;5058832;28;20468;-50
2022/01/14 04:21:05;;;;;;;92.90;38.03;;;5.60;99.90;;;;;;5058708;28;20044;-52
2022/01/14 04:23:31;;;;;;;94.05;37.08;;;5.60;99.90;;;;;;5065896;28;20067;-52
2022/01/14 04:25:57;;;;;;;101.30;38.72;;;5.60;99.90;;;;;;5064152;28;20040;-49
2022/01/14 04:28:29;;;;;;;94.18;36.13;;;5.60;99.90;;;;;;5063616;28;20105;-48
2022/01/14 04:30:56;;;;;;;104.45;39.78;;;5.60;99.90;;;;;;5062844;28;20064;-48
2022/01/14 04:33:27;;;;;;;94.93;39.58;;;5.60;99.90;;;;;;5061586;28;20406;-52
2022/01/14 04:35:54;;;;;;;98.43;38.15;;;5.60;99.90;;;;;;5059980;28;20483;-50
2022/01/14 04:38:20;;;;;;;108.28;41.33;;;5.60;99.90;;;;;;5065724;28;20045;-52
2022/01/14 04:40:46;;;;;;;100.95;39.90;;;5.60;99.90;;;;;;5067551;28;20504;-51
2022/01/14 04:43:15;;;;;;;109.03;39.53;;;5.60;99.90;;;;;;5065685;28;20044;-52
2022/01/14 04:45:53;;;;;;;119.82;40.40;;;5.60;99.90;;;;;;5063542;28;20040;-51
2022/01/14 04:48:19;;;;;;;112.32;40.28;;;5.60;99.90;;;;;;5066714;28;20437;-51
2022/01/14 04:50:44;;;;;;;117.43;39.08;;;5.60;99.90;;;;;;5061676;28;20037;-48
2022/01/14 04:53:10;;;;;;;111.60;39.55;;;5.50;99.90;;;;;;5065334;28;20358;-50
2022/01/14 04:55:36;;;;;;;104.80;36.50;;;5.60;99.90;;;;;;5063322;28;20053;-51
2022/01/14 04:58:02;;;;;;;110.50;39.38;;;5.50;99.90;;;;;;5066975;28;20450;-53
2022/01/14 05:00:28;;;;;;;107.40;38.38;;;5.50;99.90;;;;;;5063704;28;20048;-49
2022/01/14 05:02:55;;;;;;;103.72;37.88;;;5.50;99.90;;;;;;5062725;28;20049;-49
2022/01/14 05:05:23;;;;;;;101.35;37.22;;;5.50;99.90;;;;;;5057547;28;20082;-51
2022/01/14 05:07:50;;;;;;;100.70;36.47;;;5.50;99.90;;;;;;5062741;28;20036;-54
2022/01/14 05:12:44;;;;;;;113.68;37.05;;;5.50;99.90;;;;;;5069643;28;20048;-52
2022/01/14 05:15:10;;;;;;;121.22;38.38;;;5.50;99.90;;;;;;5059598;28;20056;-51
2022/01/14 05:17:36;;;;;;;113.47;37.58;;;5.50;99.90;;;;;;5064598;28;20091;-48
2022/01/14 05:20:04;;;;;;;113.72;37.38;;;5.50;99.90;;;;;;5062150;28;20068;-49
2022/01/14 05:22:29;;;;;;;116.18;38.10;;;5.50;99.90;;;;;;5066352;28;20411;-48
2022/01/14 05:24:55;;;;;;;104.38;35.97;;;5.50;99.90;;;;;;5057643;28;20135;-53
2022/01/14 05:27:21;;;;;;;113.90;36.47;;;5.40;99.90;;;;;;5064432;28;20041;-47
2022/01/14 05:29:46;;;;;;;99.63;35.10;;;5.40;99.90;;;;;;5062287;28;20041;-47
2022/01/14 05:32:14;;;;;;;112.22;36.42;;;5.40;99.90;;;;;;5057167;28;20080;-49
2022/01/14 05:34:41;;;;;;;103.38;35.63;;;5.40;99.90;;;;;;5060725;28;20068;-49
2022/01/14 05:37:08;;;;;;;103.55;36.70;;;5.40;99.90;;;;;;5058948;28;20044;-48
2022/01/14 05:39:35;;;;;;;109.03;35.78;;;5.40;99.90;;;;;;5060070;28;20044;-49
2022/01/14 05:42:01;;;;;;;107.78;35.75;;;5.40;99.90;;;;;;5063880;28;20056;-48
2022/01/14 05:44:28;;;;;;;98.35;35.53;;;5.40;99.90;;;;;;5061962;28;20052;-49
2022/01/14 05:46:56;;;;;;;101.28;35.40;;;5.40;99.90;;;;;;5059162;28;20509;-49
2022/01/14 05:49:22;;;;;;;111.30;37.85;;;5.40;99.90;;;;;;5062300;28;20060;-51
2022/01/14 05:51:48;;;;;;;106.78;37.22;;;5.40;99.90;;;;;;5056420;28;20123;-48
2022/01/14 05:54:15;;;;;;;110.22;36.83;;;5.40;99.90;;;;;;5068396;28;20139;-53
2022/01/14 05:56:41;;;;;;;101.60;35.53;;;5.40;99.90;;;;;;5060400;28;20058;-50
2022/01/14 05:59:06;;;;;;;98.18;38.33;;;5.40;99.90;;;;;;5054688;28;20094;-50
2022/01/14 06:01:32;;;;;;;89.68;34.60;;;5.40;99.90;;;;;;5062435;28;20052;-52
2022/01/14 06:03:59;;;;;;;96.45;35.08;;;5.40;99.90;;;;;;5054291;28;20040;-48
2022/01/14 06:06:24;;;;;;;96.20;36.30;;;5.40;99.90;;;;;;5057623;28;20467;-52
2022/01/14 06:08:50;;;;;;;108.10;35.50;;;5.40;99.90;;;;;;5058756;28;20128;-49
2022/01/14 06:11:16;;;;;;;99.22;35.75;;;5.40;99.90;;;;;;5058828;28;20047;-48
2022/01/14 06:13:42;;;;;;;97.00;35.45;;;5.40;99.90;;;;;;5058552;28;20133;-51
2022/01/14 06:16:08;;;;;;;97.35;36.28;;;5.40;99.90;;;;;;5061875;28;20147;-48
2022/01/14 06:18:33;;;;;;;95.82;35.97;;;5.40;99.90;;;;;;5057503;28;20048;-51
2022/01/14 06:20:59;;;;;;;94.95;34.63;;;5.40;99.90;;;;;;5055007;28;20587;-50
2022/01/14 06:23:24;;;;;;;91.88;34.55;;;5.40;99.90;;;;;;5060562;28;20128;-51
2022/01/14 06:25:50;;;;;;;79.53;33.40;;;5.40;99.90;;;;;;5058709;28;20097;-54
2022/01/14 06:28:16;;;;;;;83.60;33.20;;;5.40;99.90;;;;;;5061629;28;20106;-49
2022/01/14 06:30:41;;;;;;;74.53;32.95;;;5.40;99.90;;;;;;5060625;28;20045;-48
2022/01/14 06:33:07;;;;;;;83.47;33.70;;;5.40;99.90;;;;;;5060561;28;20979;-51
2022/01/14 06:35:32;;;;;;;76.95;33.40;;;5.40;99.90;;;;;;5063911;28;20067;-50
2022/01/14 06:38:00;;;;;;;83.15;33.55;;;5.40;99.90;;;;;;5063153;28;20102;-50
2022/01/14 06:40:26;;;;;;;78.60;33.13;;;5.40;99.90;;;;;;5059909;28;20090;-52
2022/01/14 06:42:52;;;;;;;78.38;33.70;;;5.40;99.90;;;;;;5064096;28;20075;-52
2022/01/14 06:45:18;;;;;;;80.13;33.67;;;5.40;99.90;;;;;;5057372;28;20080;-47
2022/01/14 06:47:44;;;;;;;80.00;34.08;;;5.40;99.90;;;;;;5057287;28;20522;-49
2022/01/14 06:50:09;;;;;;;79.93;32.47;;;5.50;99.90;;;;;;5054981;28;20123;-50
2022/01/14 06:52:35;;;;;;;71.63;32.20;;;5.50;99.90;;;;;;5059742;28;20127;-49
2022/01/14 06:55:01;;;;;;;79.13;33.22;;;5.50;99.90;;;;;;5066977;28;20127;-49
2022/01/14 06:57:26;;;;;;;76.70;33.03;;;5.50;99.90;;;;;;5059659;28;20079;-47
2022/01/14 06:59:52;;;;;;;72.75;30.52;;;5.50;99.90;;;;;;5060008;28;20060;-51
2022/01/14 07:02:18;;;;;;;63.47;31.00;;;5.50;99.90;;;;;;5059605;28;20060;-49
2022/01/14 07:04:43;;;;;;;77.03;34.60;;;5.50;99.90;;;;;;5063607;28;20037;-49
2022/01/14 07:07:09;;;;;;;81.38;34.17;;;5.50;99.90;;;;;;5058352;28;20048;-52
2022/01/14 07:09:35;;;;;;;74.68;32.22;;;5.50;99.90;;;;;;5051438;28;20048;-52
2022/01/14 07:12:02;;;;;;;76.88;33.20;;;5.50;99.90;;;;;;5053503;28;20516;-53
2022/01/14 07:14:29;;;;;;;78.07;34.80;;;5.50;99.90;;;;;;5059022;28;20056;-49
2022/01/14 07:16:56;;;;;;;72.18;33.65;;;5.50;99.90;;;;;;5059660;28;20090;-51
2022/01/14 07:19:23;;;;;;;76.40;33.53;;;5.50;99.90;;;;;;5059722;28;20048;-49
2022/01/14 07:21:49;;;;;;;75.05;33.17;;;5.50;99.90;;;;;;5062468;28;20052;-52
2022/01/14 07:24:15;;;;;;;71.15;33.40;;;5.50;99.90;;;;;;5052373;28;20038;-51
2022/01/14 07:26:41;;;;;;;75.00;33.10;;;5.50;99.90;;;;;;5058675;28;20120;-53
2022/01/14 07:29:07;;;;;;;71.75;33.60;;;5.50;99.90;;;;;;5060338;28;20052;-49
2022/01/14 07:31:33;;;;;;;72.30;33.72;;;5.50;99.90;;;;;;5061299;28;20044;-49
2022/01/14 07:33:59;;;;;;;68.03;33.42;;;5.50;99.90;;;;;;5062793;28;20380;-50
2022/01/14 07:36:24;;;;;;;72.65;32.65;;;5.50;99.90;;;;;;5065501;28;20110;-48
2022/01/14 07:38:50;;;;;;;71.80;31.73;;;5.50;99.90;;;;;;5060843;28;20288;-50
2022/01/14 07:41:16;;;;;;;68.80;33.30;;;5.50;99.90;;;;;;5064997;28;20165;-53
2022/01/14 07:43:46;;;;;;;66.68;33.17;;;5.50;99.90;;;;;;5070459;28;20399;-52
2022/01/14 07:46:12;;;;;;;68.07;32.10;;;5.50;99.90;;;;;;5066376;28;20074;-48
2022/01/14 07:48:37;;;;;;;66.75;32.85;;;5.40;99.90;;;;;;5065378;28;20094;-53
2022/01/14 07:51:03;;;;;;;68.50;33.13;;;5.50;99.90;;;;;;5067230;28;20037;-51
2022/01/14 07:53:29;;;;;;;66.30;31.83;;;5.50;99.90;;;;;;5066736;28;20153;-48
2022/01/14 07:55:55;;;;;;;73.85;32.70;;;5.50;99.90;;;;;;5062339;28;20075;-51
2022/01/14 07:58:21;;;;;;;67.03;32.63;;;5.50;99.90;;;;;;5064323;28;20045;-52
2022/01/14 08:00:47;;;;;;;64.60;32.28;;;5.40;99.90;;;;;;5062764;28;20403;-48
2022/01/14 08:03:12;;;;;;;67.88;32.22;;;5.50;99.90;;;;;;5065574;28;20033;-48
2022/01/14 08:05:38;;;;;;;64.78;32.65;;;5.50;99.90;;;;;;5060618;28;20033;-48
2022/01/14 08:08:07;;;;;;;58.65;31.77;;;5.50;99.90;;;;;;5055849;28;20041;-48
2022/01/14 08:10:34;;;;;;;65.85;30.98;;;5.50;99.90;;;;;;5056701;28;20045;-47
2022/01/14 08:12:59;;;;;;;62.92;32.15;;;5.50;99.90;;;;;;5057825;28;20041;-52
2022/01/14 08:15:25;;;;;;;61.38;32.42;;;5.50;99.90;;;;;;5060085;28;20048;-52
2022/01/14 08:17:51;;;;;;;58.92;30.85;;;5.50;99.90;;;;;;5056298;28;20048;-50
2022/01/14 08:20:17;;;;;;;61.00;32.50;;;5.50;99.90;;;;;;5054401;28;20455;-50
2022/01/14 08:22:42;;;;;;;51.30;31.38;;;5.60;99.90;;;;;;5054548;28;20456;-48
2022/01/14 08:25:09;;;;;;;58.70;33.03;;;5.60;99.90;;;;;;5057810;28;20067;-53
2022/01/14 08:27:35;;;;;;;54.95;31.52;;;5.60;99.90;;;;;;5057959;28;20451;-51
2022/01/14 08:30:01;;;;;;;52.85;30.73;;;5.60;99.90;;;;;;5058853;28;20060;-48
2022/01/14 08:32:26;;;;;;;48.35;30.13;;;5.60;99.90;;;;;;5056489;28;20091;-51
2022/01/14 08:34:52;;;;;;;57.28;30.52;;;5.60;99.90;;;;;;5062372;28;20070;-48
2022/01/14 08:37:18;;;;;;;55.83;31.05;;;5.70;99.90;;;;;;5064587;28;20070;-52
2022/01/14 08:39:44;;;;;;;54.25;30.67;;;5.70;99.90;;;;;;5059632;28;20048;-52
2022/01/14 08:42:11;;;;;;;55.28;31.30;;;5.70;99.90;;;;;;5060804;28;20048;-52
2022/01/14 08:44:36;;;;;;;50.63;31.00;;;5.70;99.90;;;;;;5061364;28;20033;-53
2022/01/14 08:47:05;;;;;;;51.85;30.92;;;5.80;99.90;;;;;;5063796;28;20502;-53
2022/01/14 08:49:31;;;;;;;51.20;30.30;;;5.80;99.90;;;;;;5061114;28;20041;-50
2022/01/14 08:51:57;;;;;;;45.25;30.33;;;5.80;99.90;;;;;;5060718;28;20033;-48
2022/01/14 08:54:22;;;;;;;53.20;29.13;;;5.80;99.90;;;;;;5055008;28;20048;-53
2022/01/14 08:56:48;;;;;;;45.75;28.58;;;5.80;99.90;;;;;;5053827;28;20174;-47
2022/01/14 08:59:17;;;;;;;50.70;30.55;;;5.80;99.90;;;;;;5053752;28;20049;-51
2022/01/14 09:01:43;;;;;;;52.17;29.60;;;5.80;99.90;;;;;;5069211;28;20129;-53
2022/01/14 09:04:09;;;;;;;49.90;30.75;;;5.90;99.90;;;;;;5073565;28;20040;-52
2022/01/14 09:06:35;;;;;;;45.05;29.05;;;5.90;99.90;;;;;;5073699;28;20051;-50
2022/01/14 09:09:01;;;;;;;44.03;28.13;;;5.90;99.90;;;;;;5067247;28;20048;-52
2022/01/14 09:11:26;;;;;;;48.78;27.70;;;5.90;99.90;;;;;;5053147;28;20040;-53
2022/01/14 09:13:52;;;;;;;45.33;28.30;;;6.00;99.90;;;;;;5056943;28;20041;-52
2022/01/14 09:16:20;;;;;;;44.85;28.08;;;6.00;99.90;;;;;;5053362;28;20041;-47
2022/01/14 09:18:48;;;;;;;43.50;28.08;;;6.00;99.90;;;;;;5053045;28;20072;-49
2022/01/14 09:21:16;;;;;;;45.20;27.52;;;6.00;99.90;;;;;;5053146;28;20040;-47
2022/01/14 09:23:43;;;;;;;42.77;26.83;;;6.00;99.90;;;;;;5066542;28;20037;-47
2022/01/14 09:26:09;;;;;;;47.40;27.10;;;6.10;99.90;;;;;;5072194;28;20044;-52
2022/01/14 09:28:35;;;;;;;44.95;27.67;;;6.10;99.90;;;;;;5072787;28;20049;-49
2022/01/14 09:31:00;;;;;;;43.90;26.73;;;6.20;99.90;;;;;;5056440;28;20112;-49
2022/01/14 09:33:27;;;;;;;48.17;28.65;;;6.20;99.90;;;;;;5060236;28;20170;-54
2022/01/14 09:35:52;;;;;;;49.80;28.48;;;6.20;99.90;;;;;;5072874;28;20036;-53
2022/01/14 09:38:18;;;;;;;45.42;26.52;;;6.30;99.90;;;;;;5071003;28;20119;-50
2022/01/14 09:40:48;;;;;;;41.78;26.83;;;6.20;99.90;;;;;;5072925;28;20045;-52
2022/01/14 09:43:15;;;;;;;41.72;27.70;;;6.30;99.90;;;;;;5067661;28;20044;-49
2022/01/14 09:45:41;;;;;;;40.50;25.88;;;6.40;99.90;;;;;;5058677;28;20536;-49
2022/01/14 09:48:07;;;;;;;41.08;25.02;;;6.40;99.90;;;;;;5052548;28;20190;-52
2022/01/14 09:50:32;;;;;;;32.75;24.25;;;6.40;99.90;;;;;;5052710;28;20148;-51
2022/01/14 09:52:58;;;;;;;37.78;24.73;;;6.40;99.90;;;;;;5053143;28;20510;-51
2022/01/14 09:55:24;;;;;;;40.50;24.40;;;6.50;99.90;;;;;;5052610;28;20136;-50
2022/01/14 09:57:52;;;;;;;51.15;23.70;;;6.50;99.90;;;;;;5058609;28;20506;-50
2022/01/14 10:00:18;;;;;;;50.03;24.08;;;6.50;99.90;;;;;;5072513;28;20045;-48
2022/01/14 10:02:43;;;;;;;42.95;23.10;;;6.60;99.90;;;;;;5072137;28;20380;-51
2022/01/14 10:05:30;;;;;;;38.53;22.52;;;6.60;99.90;;;;;;5069867;28;20049;-49
2022/01/14 10:08:08;;;;;;;32.03;21.45;;;6.70;99.90;;;;;;5052875;28;20041;-50
2022/01/14 10:10:37;;;;;;;;;;;6.70;99.90;;;;;;5052625;28;20128;-52
2022/01/14 10:13:23;;;;;;;37.50;21.55;;;6.70;99.90;;;;;;5052350;28;19920;-50
2022/01/14 10:15:52;;;;;;;37.53;22.20;;;6.70;99.90;;;;;;5052558;28;20052;-52
2022/01/14 10:18:19;;;;;;;38.83;21.88;;;6.80;99.90;;;;;;5054408;28;20125;-49
2022/01/14 10:20:45;;;;;;;35.47;21.35;;;6.80;99.90;;;;;;5066193;28;20069;-49
2022/01/14 10:23:12;;;;;;;44.70;19.80;;;6.90;99.90;;;;;;5071290;28;20040;-52
2022/01/14 10:25:39;;;;;;;50.38;21.58;;;6.80;99.90;;;;;;5052039;28;20307;-53
2022/01/14 10:28:15;;;;;;;38.03;20.33;;;;;;;;;;5052100;28;20588;-52
2022/01/14 10:30:44;;;;;;;29.88;19.20;;;;;;;;;;5056134;28;20051;-52
2022/01/14 10:33:11;;;;;;;30.00;18.52;;;;;;;;;;5071991;28;20403;-52
2022/01/14 10:35:42;;;;;;;27.52;18.13;;;;;;;;;;5072321;28;20048;-53
2022/01/14 10:38:09;;;;;;;26.27;18.42;;;;;;;;;;5064400;28;20063;-50
2022/01/14 10:40:38;;;;;;;26.30;17.45;;;;;;;;;;5054824;28;20406;-53
2022/01/14 10:43:08;;;;;;;30.92;18.40;;;;;;;;;;5071981;28;20045;-50
2022/01/14 10:45:34;;;;;;;28.45;18.10;;;;;;;;;;5053569;28;20045;-50
2022/01/14 10:48:08;;;;;;;30.58;17.92;;;;;;;;;;5052047;28;20474;-48
2022/01/14 10:50:37;;;;;;;30.63;18.27;;;;;;;;;;5051449;28;20146;-52
2022/01/14 10:53:07;;;;;;;31.77;17.55;;;;;;;;;;5059077;28;20041;-51
2022/01/14 10:55:35;;;;;;;30.48;17.40;;;;;;;;;;5066289;28;20380;-49
2022/01/14 10:58:02;;;;;;;29.45;17.40;;;;;;;;;;5072012;28;20135;-52
2022/01/14 11:00:29;;;;;;;31.10;17.90;;;;;;;;;;5065938;28;20048;-52
2022/01/14 11:02:56;;;;;;;31.48;17.83;;;;;;;;;;5055924;28;20302;-53
2022/01/14 11:05:23;;;;;;;34.47;17.27;;;;;;;;;;5070380;28;20049;-51
2022/01/14 11:07:50;;;;;;;28.35;15.90;;;;;;;;;;5056808;28;20106;-50
2022/01/14 11:10:24;;;;;;;28.55;16.15;;;;;;;;;;5062142;28;20101;-51
2022/01/14 11:12:51;;;;;;;29.00;16.50;;;;;;;;;;5076164;28;20147;-50
2022/01/14 11:15:18;;;;;;;26.55;15.77;;;;;;;;;;5072633;28;20522;-49
2022/01/14 11:17:49;;;;;;;31.52;16.83;;;;;;;;;;5055647;28;20068;-50
2022/01/14 11:20:20;;;;;;;28.95;16.23;;;;;;;;;;5054869;28;20056;-47
2022/01/14 11:25:31;;;;;;;28.40;16.02;;;;;;;;;;5064327;28;20174;-48
2022/01/14 11:27:59;;;;;;;26.25;15.50;;;;;;;;;;5075626;28;20040;-50
2022/01/14 11:30:25;;;;;;;;;;;;;;;;;;5075613;28;20052;-48
2022/01/14 11:32:52;;;;;;;21.30;14.25;;;;;;;;;;5073365;28;20316;-47
2022/01/14 11:35:22;;;;;;;21.90;13.40;;;;;;;;;;5064182;28;20045;-48
2022/01/14 11:37:48;;;;;;;20.70;11.90;;;;;;;;;;5055332;28;20052;-47
2022/01/14 11:40:15;;;;;;;20.63;11.20;;;;;;;;;;5055383;28;20399;-48
2022/01/14 11:42:44;;;;;;;20.38;11.60;;;;;;;;;;5055442;28;20422;-49
2022/01/14 11:45:12;;;;;;;22.40;11.13;;;;;;;;;;5073843;28;20071;-49
2022/01/14 11:47:47;;;;;;;18.58;10.30;;;;;;;;;;5072938;28;20131;-49
2022/01/14 11:50:20;;;;;;;17.48;11.20;;;;;;;;;;5062861;28;20055;-47
2022/01/14 11:52:47;;;;;;;25.40;11.32;;;;;;;;;;5064053;28;20140;-48
2022/01/14 11:55:34;;;;;;;26.00;11.05;;;;;;;;;;5055425;28;20053;-47
2022/01/14 11:58:09;;;;;;;19.95;10.98;;;;;;;;;;5056448;28;20045;-47
2022/01/14 12:00:41;;;;;;;19.73;10.05;;;;;;;;;;5058419;28;20547;-49
2022/01/14 12:03:07;;;;;;;19.35;9.85;;;;;;;;;;5055733;28;20609;-47
2022/01/14 12:05:33;;;;;;;17.83;9.80;;;;;;;;;;5058768;28;20049;-49
2022/01/14 12:08:02;;;;;;;19.88;9.48;;;;;;;;;;5073680;28;20044;-47
2022/01/14 12:10:32;;;;;;;14.75;8.90;;;;;;;;;;5063016;28;20195;-47
2022/01/14 12:13:16;;;;;;;21.38;9.95;;;;;;;;;;5067603;28;20040;-51
2022/01/14 12:15:54;;;;;;;15.80;9.30;;;;;;;;;;5068088;28;20057;-48
2022/01/14 12:18:40;;;;;;;15.32;8.82;;;;;;;;;;5056233;28;20052;-47
2022/01/14 12:21:06;;;;;;;16.08;8.82;;;;;;;;;;5059319;28;20083;-47
2022/01/14 12:23:32;;;;;;;20.77;9.00;;;;;;;;;;5057244;28;20119;-47
2022/01/14 12:26:12;;;;;;;17.48;8.05;;;;;;;;;;5074214;28;20032;-48
2022/01/14 12:28:38;;;;;;;20.75;9.05;;;;;;;;;;5054538;28;20086;-50
2022/01/14 12:31:04;;;;;;;18.45;9.10;;;;;;;;;;5060489;28;20045;-50
2022/01/14 12:33:43;;;;;;;15.73;8.40;;;;;;;;;;5069458;28;20079;-54
2022/01/14 12:36:11;;;;;;;17.80;8.25;;;;;;;;;;5059743;28;20051;-51
2022/01/14 12:38:39;;;;;;;17.40;8.30;;;;;;;;;;5065334;28;20051;-51
2022/01/14 12:41:05;;;;;;;15.48;8.57;;;;;;;;;;5063056;28;20410;-53
2022/01/14 12:43:31;;;;;;;15.60;8.13;;;;;;;;;;5062243;28;20126;-51
2022/01/14 12:46:12;;;;;;;13.05;7.47;;;;;;;;;;5062916;28;20057;-54
2022/01/14 12:48:40;;;;;;;14.30;7.30;;;;;;;;;;5063822;28;20048;-52
2022/01/14 12:51:08;;;;;;;17.17;6.70;;;;;;;;;;5064568;28;20063;-52
2022/01/14 12:53:34;;;;;;;19.00;6.97;;;;;;;;;;5065829;28;20458;-49
2022/01/14 12:56:01;;;;;;;14.60;7.13;;;;;;;;;;5066006;28;20104;-52
2022/01/14 12:58:27;;;;;;;12.30;6.38;;;;;;;;;;5056448;28;20045;-47
2022/01/14 13:00:53;;;;;;;10.05;6.35;;;;;;;;;;5057839;28;20056;-49
2022/01/14 13:03:19;;;;;;;14.82;6.65;;;;;;;;;;5056297;28;20439;-49
2022/01/14 13:05:45;;;;;;;11.82;6.03;;;;;;;;;;5069586;28;20153;-48
2022/01/14 13:08:11;;;;;;;13.52;5.85;;;;;;;;;;5064395;28;20150;-51
2022/01/14 13:10:38;;;;;;;12.75;5.93;;;;;;;;;;5068917;28;20133;-49
2022/01/14 13:13:04;;;;;;;12.27;5.68;;;;;;;;;;5071814;28;20530;-49
2022/01/14 13:15:32;;;;;;;14.02;5.80;;;;;;;;;;5073765;28;20068;-48
2022/01/14 13:18:01;;;;;;;13.43;5.53;;;;;;;;;;5067093;28;20047;-49
2022/01/14 13:20:29;;;;;;;11.38;5.85;;;;;;;;;;5059652;28;20052;-49